Time;durP1;ratioP1;P1;durP2;ratioP2;P2;SDS_P1;SDS_P2;PMS_P1;PMS_P2;Temp;Humidity;BMP_temperature;BMP_pressure;BME280_temperature;BME280_humidity;BME280_pressure;Samples;Min_cycle;Max_cycle;Signal;HPM_P1;HPM_P2
2022/06/26 00:02:00;;;;;;;;;;;21.70;68.20;;;;;;5071839;28;1957;-69
2022/06/26 00:04:26;;;;;;;;;;;21.70;68.20;;;;;;5075020;28;1317;-69
2022/06/26 00:06:51;;;;;;;;;;;21.70;68.20;;;;;;5076117;28;1233;-69
2022/06/26 00:09:17;;;;;;;;;;;21.70;68.20;;;;;;5075967;28;1066;-69
2022/06/26 00:11:42;;;;;;;;;;;21.70;68.20;;;;;;5075893;28;1252;-69
2022/06/26 00:14:07;;;;;;;;;;;21.70;68.20;;;;;;5074426;28;1315;-69
2022/06/26 00:16:33;;;;;;;;;;;21.70;68.30;;;;;;5075517;28;1261;-69
2022/06/26 00:18:58;;;;;;;;;;;21.70;69.00;;;;;;5069748;28;1255;-69
2022/06/26 00:21:24;;;;;;;;;;;21.70;68.30;;;;;;5075673;28;1898;-69
2022/06/26 00:23:49;;;;;;;;;;;21.70;68.30;;;;;;5075344;28;1322;-69
2022/06/26 00:26:15;;;;;;;;;;;21.70;68.20;;;;;;5071129;28;1136;-69
2022/06/26 00:28:40;;;;;;;;;;;21.70;68.20;;;;;;5075647;28;1293;-69
2022/06/26 00:31:05;;;;;;;;;;;21.70;68.20;;;;;;5075220;28;1257;-69
2022/06/26 00:33:31;;;;;;;;;;;21.70;68.30;;;;;;5075562;28;1253;-69
2022/06/26 00:35:56;;;;;;;;;;;21.70;68.30;;;;;;5075749;28;1310;-68
2022/06/26 00:38:22;;;;;;;;;;;21.70;68.30;;;;;;5069187;28;1359;-70
2022/06/26 00:40:47;;;;;;;;;;;21.70;68.30;;;;;;5070138;28;1894;-68
2022/06/26 00:43:13;;;;;;;;;;;21.70;68.30;;;;;;5067863;28;1298;-67
2022/06/26 00:45:38;;;;;;;;;;;21.70;68.30;;;;;;5070114;28;1222;-68
2022/06/26 00:48:04;;;;;;;;;;;21.70;68.30;;;;;;5068973;28;1250;-70
2022/06/26 00:50:29;;;;;;;;;;;21.70;68.30;;;;;;5072850;28;1158;-70
2022/06/26 00:52:56;;;;;;;;;;;21.70;68.30;;;;;;5070139;28;2171;-69
2022/06/26 00:55:21;;;;;;;;;;;21.70;68.30;;;;;;5069845;28;1373;-69
2022/06/26 00:57:47;;;;;;;;;;;21.70;68.30;;;;;;5068937;28;1225;-69
2022/06/26 01:00:12;;;;;;;;;;;21.70;68.30;;;;;;5067132;28;1129;-69
2022/06/26 01:02:38;;;;;;;;;;;21.70;68.30;;;;;;5075200;28;1910;-69
2022/06/26 01:05:04;;;;;;;;;;;21.70;68.30;;;;;;5067513;28;1671;-69
2022/06/26 01:07:30;;;;;;;;;;;21.70;68.30;;;;;;5075136;28;1289;-69
2022/06/26 01:09:56;;;;;;;;;;;21.70;68.30;;;;;;5075306;28;1279;-69
2022/06/26 01:12:22;;;;;;;;;;;21.70;68.30;;;;;;5075013;28;1356;-69
2022/06/26 01:14:48;;;;;;;;;;;21.70;68.30;;;;;;5074435;28;1307;-69
2022/06/26 01:17:13;;;;;;;;;;;21.70;68.30;;;;;;5073698;28;1377;-68
2022/06/26 01:19:39;;;;;;;;;;;21.70;68.40;;;;;;5069870;28;1161;-69
2022/06/26 01:22:04;;;;;;;;;;;21.70;68.30;;;;;;5056811;28;1963;-69
2022/06/26 01:24:29;;;;;;;;;;;21.70;68.30;;;;;;5074966;28;1329;-69
2022/06/26 01:26:55;;;;;;;;;;;21.70;68.30;;;;;;5071252;28;1220;-68
2022/06/26 01:29:21;;;;;;;;;;;21.70;68.30;;;;;;5074782;28;1329;-70
2022/06/26 01:31:46;;;;;;;;;;;21.70;68.30;;;;;;5074916;28;1317;-70
2022/06/26 01:34:12;;;;;;;;;;;21.70;68.40;;;;;;5073278;28;1349;-69
2022/06/26 01:36:38;;;;;;;;;;;21.70;68.30;;;;;;5073377;28;1294;-69
2022/06/26 01:39:03;;;;;;;;;;;21.70;68.30;;;;;;5074791;28;1086;-70
2022/06/26 01:41:29;;;;;;;;;;;21.70;68.30;;;;;;5073581;28;1965;-69
2022/06/26 01:43:54;;;;;;;;;;;21.70;68.40;;;;;;5072931;28;1403;-69
2022/06/26 01:46:20;;;;;;;;;;;21.70;68.40;;;;;;5073273;28;1356;-69
2022/06/26 01:48:46;;;;;;;;;;;21.70;68.40;;;;;;5074763;28;1268;-68
2022/06/26 01:51:11;;;;;;;;;;;21.70;68.40;;;;;;5074417;28;1313;-68
2022/06/26 01:53:36;;;;;;;;;;;21.70;68.40;;;;;;5056089;28;1306;-68
2022/06/26 01:56:02;;;;;;;;;;;21.70;68.40;;;;;;5074214;28;1293;-68
2022/06/26 01:58:28;;;;;;;;;;;21.70;68.40;;;;;;5073990;28;1260;-68
2022/06/26 02:00:53;;;;;;;;;;;21.70;68.40;;;;;;5074283;28;1922;-68
2022/06/26 02:03:19;;;;;;;;;;;21.70;68.40;;;;;;5074131;28;1366;-68
2022/06/26 02:05:45;;;;;;;;;;;21.70;68.40;;;;;;5072594;28;1361;-69
2022/06/26 02:08:10;;;;;;;;;;;21.70;68.40;;;;;;5074171;28;1388;-68
2022/06/26 02:16:10;;;;;;;;;;;21.70;68.40;;;;;;5073833;28;1502;-68
2022/06/26 02:18:36;;;;;;;;;;;21.70;68.40;;;;;;5052198;28;1240;-68
2022/06/26 02:21:03;;;;;;;;;;;21.70;68.40;;;;;;5070925;28;1906;-68
2022/06/26 02:23:29;;;;;;;;;;;21.70;68.40;;;;;;5073362;28;1284;-67
2022/06/26 02:25:54;;;;;;;;;;;21.70;68.40;;;;;;5068408;28;1324;-70
2022/06/26 02:28:19;;;;;;;;;;;21.70;68.40;;;;;;5071755;28;1305;-69
2022/06/26 02:30:46;;;;;;;;;;;21.70;69.10;;;;;;5073651;28;1316;-69
2022/06/26 02:33:11;;;;;;;;;;;21.70;68.40;;;;;;5072350;28;1265;-69
2022/06/26 02:35:37;;;;;;;;;;;21.70;68.40;;;;;;5071791;28;1379;-69
2022/06/26 02:38:02;;;;;;;;;;;21.70;68.40;;;;;;5073313;28;1302;-69
2022/06/26 02:40:28;;;;;;;;;;;21.60;68.40;;;;;;5073391;28;2022;-68
2022/06/26 02:42:54;;;;;;;;;;;21.70;68.40;;;;;;5072194;28;1432;-68
2022/06/26 02:45:19;;;;;;;;;;;21.70;68.40;;;;;;5065078;28;1855;-68
2022/06/26 02:47:45;;;;;;;;;;;21.70;68.50;;;;;;5065905;28;1482;-68
2022/06/26 02:50:10;;;;;;;;;;;21.70;68.40;;;;;;5068454;28;1714;-68
2022/06/26 02:52:36;;;;;;;;;;;21.70;68.40;;;;;;5069346;28;1652;-68
2022/06/26 02:55:01;;;;;;;;;;;21.70;68.40;;;;;;5070322;28;1404;-68
2022/06/26 02:57:27;;;;;;;;;;;21.70;68.50;;;;;;5073391;28;1733;-68
2022/06/26 02:59:52;;;;;;;;;;;21.70;68.40;;;;;;5073434;28;1611;-68
2022/06/26 03:02:18;;;;;;;;;;;21.70;68.40;;;;;;5073287;28;1910;-68
2022/06/26 03:04:43;;;;;;;;;;;21.70;68.40;;;;;;5062532;28;1345;-68
2022/06/26 03:07:09;;;;;;;;;;;21.70;68.50;;;;;;5067896;28;1574;-69
2022/06/26 03:09:34;;;;;;;;;;;21.70;68.40;;;;;;5073109;28;1406;-69
2022/06/26 03:12:00;;;;;;;;;;;21.70;68.40;;;;;;5073230;28;1668;-68
2022/06/26 03:14:25;;;;;;;;;;;21.70;68.50;;;;;;5071527;28;1682;-68
2022/06/26 03:16:50;;;;;;;;;;;21.70;68.50;;;;;;5073115;28;1142;-68
2022/06/26 03:19:16;;;;;;;;;;;21.70;68.40;;;;;;5067514;28;1713;-68
2022/06/26 03:21:41;;;;;;;;;;;21.70;68.50;;;;;;5072864;28;1898;-68
2022/06/26 03:24:07;;;;;;;;;;;21.70;68.50;;;;;;5072747;28;1680;-68
2022/06/26 03:26:33;;;;;;;;;;;21.60;68.40;;;;;;5068820;28;1410;-68
2022/06/26 03:28:59;;;;;;;;;;;21.70;68.50;;;;;;5071924;28;1459;-68
2022/06/26 03:31:25;;;;;;;;;;;21.70;68.50;;;;;;5071877;28;1250;-68
2022/06/26 03:33:50;;;;;;;;;;;21.70;68.50;;;;;;5072503;28;1367;-68
2022/06/26 03:36:16;;;;;;;;;;;21.70;68.50;;;;;;5070879;28;2380;-68
2022/06/26 03:38:42;;;;;;;;;;;21.70;68.50;;;;;;5066256;28;1080;-68
2022/06/26 03:41:07;;;;;;;;;;;21.70;68.90;;;;;;5070937;28;1913;-68
2022/06/26 03:43:32;;;;;;;;;;;21.70;68.50;;;;;;5076657;28;1278;-68
2022/06/26 03:45:58;;;;;;;;;;;21.70;68.50;;;;;;5076775;28;1268;-68
2022/06/26 03:48:23;;;;;;;;;;;21.70;68.50;;;;;;5076647;28;1357;-68
2022/06/26 03:50:50;;;;;;;;;;;21.70;68.50;;;;;;5076803;28;1281;-69
2022/06/26 03:53:16;;;;;;;;;;;21.70;68.50;;;;;;5076799;28;1378;-69
2022/06/26 03:55:41;;;;;;;;;;;21.70;68.50;;;;;;5076162;28;1433;-69
2022/06/26 03:58:07;;;;;;;;;;;21.70;68.50;;;;;;5076427;28;1193;-68
2022/06/26 04:00:32;;;;;;;;;;;21.70;68.50;;;;;;5076538;28;2001;-67
2022/06/26 04:02:58;;;;;;;;;;;21.70;68.50;;;;;;5076790;28;1402;-67
2022/06/26 04:05:23;;;;;;;;;;;21.70;68.50;;;;;;5074783;28;1483;-68
2022/06/26 04:07:49;;;;;;;;;;;21.70;68.60;;;;;;5076134;28;1259;-67
2022/06/26 04:10:14;;;;;;;;;;;21.70;68.50;;;;;;5076460;28;1329;-68
2022/06/26 04:12:39;;;;;;;;;;;21.70;68.60;;;;;;5076222;28;1314;-68
2022/06/26 04:15:05;;;;;;;;;;;21.70;68.60;;;;;;5076019;28;1219;-67
2022/06/26 04:17:31;;;;;;;;;;;21.70;68.50;;;;;;5074826;28;1349;-67
2022/06/26 04:19:56;;;;;;;;;;;21.70;68.50;;;;;;5070150;28;1027;-67
2022/06/26 04:22:22;;;;;;;;;;;21.70;68.50;;;;;;5075976;28;1898;-68
2022/06/26 04:24:47;;;;;;;;;;;21.70;68.50;;;;;;5075524;28;1310;-68
2022/06/26 04:27:13;;;;;;;;;;;21.70;68.50;;;;;;5072772;28;1080;-68
2022/06/26 04:29:38;;;;;;;;;;;21.70;68.50;;;;;;5076236;28;879;-68
2022/06/26 04:32:04;;;;;;;;;;;21.60;68.50;;;;;;5065454;28;1875;-68
2022/06/26 04:34:29;;;;;;;;;;;21.70;68.50;;;;;;5064901;28;1815;-67
2022/06/26 04:36:55;;;;;;;;;;;21.70;68.50;;;;;;5067070;28;1058;-66
2022/06/26 04:39:20;;;;;;;;;;;21.70;68.50;;;;;;5057621;28;1053;-70
2022/06/26 04:41:47;;;;;;;;;;;21.70;68.50;;;;;;5055052;28;2072;-68
2022/06/26 04:44:13;;;;;;;;;;;21.70;68.60;;;;;;5054576;28;1306;-67
2022/06/26 04:46:39;;;;;;;;;;;21.70;68.50;;;;;;5054655;28;1232;-67
2022/06/26 04:49:05;;;;;;;;;;;21.70;68.50;;;;;;5053767;28;969;-69
2022/06/26 04:51:30;;;;;;;;;;;21.70;68.50;;;;;;5053642;28;844;-70
2022/06/26 04:53:55;;;;;;;;;;;21.70;68.50;;;;;;5054055;28;1300;-69
2022/06/26 04:56:21;;;;;;;;;;;21.70;68.60;;;;;;5054337;28;1134;-70
2022/06/26 04:58:46;;;;;;;;;;;21.70;68.60;;;;;;5055547;28;1089;-70
2022/06/26 05:01:12;;;;;;;;;;;21.70;68.50;;;;;;5055528;28;1909;-70
2022/06/26 05:03:37;;;;;;;;;;;21.70;68.50;;;;;;5055235;28;1218;-70
2022/06/26 05:06:03;;;;;;;;;;;21.70;68.60;;;;;;5054287;28;876;-70
2022/06/26 05:08:28;;;;;;;;;;;21.70;68.50;;;;;;5055430;28;1017;-70
2022/06/26 05:10:53;;;;;;;;;;;21.70;68.60;;;;;;5055347;28;876;-70
2022/06/26 05:13:19;;;;;;;;;;;21.70;68.60;;;;;;5055296;28;1089;-70
2022/06/26 05:15:46;;;;;;;;;;;21.70;68.50;;;;;;5054920;28;1340;-70
2022/06/26 05:18:12;;;;;;;;;;;21.70;68.60;;;;;;5055964;28;1118;-70
2022/06/26 05:20:37;;;;;;;;;;;21.70;68.60;;;;;;5074955;28;1963;-70
2022/06/26 05:23:03;;;;;;;;;;;21.70;68.60;;;;;;5075075;28;878;-70
2022/06/26 05:25:28;;;;;;;;;;;21.70;68.60;;;;;;5067711;28;1178;-68
2022/06/26 05:27:54;;;;;;;;;;;21.70;68.60;;;;;;5055677;28;994;-67
2022/06/26 05:30:19;;;;;;;;;;;21.70;68.60;;;;;;5053919;28;910;-69
2022/06/26 05:32:45;;;;;;;;;;;21.70;68.50;;;;;;5054927;28;780;-69
2022/06/26 05:35:10;;;;;;;;;;;21.70;68.60;;;;;;5055100;28;1303;-69
2022/06/26 05:37:35;;;;;;;;;;;21.70;68.60;;;;;;5055049;28;941;-69
2022/06/26 05:40:01;;;;;;;;;;;21.70;68.60;;;;;;5055031;28;1064;-69
2022/06/26 05:42:26;;;;;;;;;;;21.70;68.60;;;;;;5054786;28;1890;-69
2022/06/26 05:44:52;;;;;;;;;;;21.70;68.60;;;;;;5054719;28;1277;-66
2022/06/26 05:47:17;;;;;;;;;;;21.70;68.60;;;;;;5069896;28;1404;-69
2022/06/26 05:49:43;;;;;;;;;;;21.70;68.60;;;;;;5074927;28;799;-71
2022/06/26 05:52:08;;;;;;;;;;;21.70;68.60;;;;;;5074378;28;871;-71
2022/06/26 05:54:33;;;;;;;;;;;21.70;68.60;;;;;;5085181;23;1986;-72
2022/06/26 05:56:59;;;;;;;;;;;21.70;68.60;;;;;;5074139;28;1063;-71
2022/06/26 05:59:24;;;;;;;;;;;21.60;68.50;;;;;;5074439;28;878;-69
2022/06/26 06:01:50;;;;;;;;;;;21.70;68.60;;;;;;5073910;28;1902;-69
2022/06/26 06:04:15;;;;;;;;;;;21.70;68.60;;;;;;5073882;28;1301;-69
2022/06/26 06:06:41;;;;;;;;;;;21.70;68.60;;;;;;5074240;28;909;-71
2022/06/26 06:09:06;;;;;;;;;;;21.70;68.60;;;;;;5056363;28;1378;-68
2022/06/26 06:11:32;;;;;;;;;;;21.60;68.50;;;;;;5074137;28;1029;-71
2022/06/26 06:13:57;;;;;;;;;;;21.70;68.60;;;;;;5073775;28;1260;-70
2022/06/26 06:16:22;;;;;;;;;;;21.70;68.60;;;;;;5074014;28;815;-71
2022/06/26 06:18:48;;;;;;;;;;;21.60;68.50;;;;;;5073768;28;1213;-71
2022/06/26 06:21:13;;;;;;;;;;;21.60;68.60;;;;;;5073799;28;1941;-71
2022/06/26 06:23:39;;;;;;;;;;;21.70;68.60;;;;;;5055949;28;1186;-73
2022/06/26 06:26:04;;;;;;;;;;;21.70;68.70;;;;;;5073468;28;1122;-71
2022/06/26 06:28:30;;;;;;;;;;;21.70;68.60;;;;;;5073800;28;855;-72
2022/06/26 06:30:55;;;;;;;;;;;21.60;68.50;;;;;;5073611;28;762;-73
2022/06/26 06:33:21;;;;;;;;;;;21.70;68.60;;;;;;5073993;28;824;-72
2022/06/26 06:35:48;;;;;;;;;;;21.60;68.60;;;;;;5073150;28;1350;-72
2022/06/26 06:38:14;;;;;;;;;;;21.70;68.60;;;;;;5073628;28;776;-72
2022/06/26 06:40:39;;;;;;;;;;;21.70;68.70;;;;;;5055622;28;1945;-72
2022/06/26 06:43:08;;;;;;;;;;;21.60;69.30;;;;;;5073583;28;693;-72
2022/06/26 06:45:34;;;;;;;;;;;21.70;68.70;;;;;;5070880;28;1199;-73
2022/06/26 06:47:59;;;;;;;;;;;21.70;68.70;;;;;;5065464;28;2319;-72
2022/06/26 06:50:26;;;;;;;;;;;21.60;68.60;;;;;;5073323;28;1069;-75
2022/06/26 06:52:51;;;;;;;;;;;21.60;68.60;;;;;;5073238;28;891;-74
2022/06/26 06:55:16;;;;;;;;;;;21.70;68.70;;;;;;5068872;28;2241;-73
2022/06/26 06:57:42;;;;;;;;;;;21.70;68.70;;;;;;5073061;28;1218;-73
2022/06/26 07:00:08;;;;;;;;;;;21.70;68.70;;;;;;5073186;28;1248;-73
2022/06/26 07:02:35;;;;;;;;;;;21.70;68.70;;;;;;5031063;28;2209;-73
2022/06/26 07:05:01;;;;;;;;;;;21.70;68.70;;;;;;5054898;28;1366;-72
2022/06/26 07:07:26;;;;;;;;;;;21.70;68.70;;;;;;5055006;28;1340;-73
2022/06/26 07:09:52;;;;;;;;;;;21.70;68.70;;;;;;5073154;28;1114;-72
2022/06/26 07:12:17;;;;;;;;;;;21.70;68.70;;;;;;5052128;28;1370;-72
2022/06/26 07:14:43;;;;;;;;;;;21.70;68.70;;;;;;5054644;28;1269;-75
2022/06/26 07:17:08;;;;;;;;;;;21.60;68.60;;;;;;5072817;28;958;-73
2022/06/26 07:19:34;;;;;;;;;;;21.70;68.70;;;;;;5054985;28;1462;-74
2022/06/26 07:21:59;;;;;;;;;;;21.70;68.70;;;;;;5073005;28;1947;-74
2022/06/26 07:24:25;;;;;;;;;;;21.70;68.70;;;;;;5072648;28;1215;-74
2022/06/26 07:26:50;;;;;;;;;;;21.70;68.70;;;;;;5072922;28;1162;-74
2022/06/26 07:29:16;;;;;;;;;;;21.60;68.60;;;;;;5072783;28;1013;-74
2022/06/26 07:31:41;;;;;;;;;;;21.70;68.70;;;;;;5072934;28;858;-74
2022/06/26 07:34:13;;;;;;;;;;;21.70;68.70;;;;;;5072707;28;1317;-74
2022/06/26 07:36:41;;;;;;;;;;;21.70;68.70;;;;;;5073331;28;759;-74
2022/06/26 07:39:07;;;;;;;;;;;21.70;68.70;;;;;;5038276;28;1723;-74
2022/06/26 07:41:33;;;;;;;;;;;21.70;68.70;;;;;;5072836;28;1894;-74
2022/06/26 07:43:58;;;;;;;;;;;21.70;68.70;;;;;;5054745;28;1227;-74
2022/06/26 07:46:24;;;;;;;;;;;21.70;68.70;;;;;;5072694;28;855;-74
2022/06/26 07:48:49;;;;;;;;;;;21.70;68.70;;;;;;5072877;28;841;-74
2022/06/26 07:51:15;;;;;;;;;;;21.70;68.70;;;;;;5072887;28;926;-74
2022/06/26 07:53:40;;;;;;;;;;;21.60;68.60;;;;;;5054558;28;1183;-73
2022/06/26 07:56:05;;;;;;;;;;;21.70;68.70;;;;;;5073437;28;1297;-73
2022/06/26 07:58:31;;;;;;;;;;;21.70;68.70;;;;;;5054645;28;1001;-73
2022/06/26 08:00:56;;;;;;;;;;;21.70;68.70;;;;;;5072527;28;1957;-73
2022/06/26 08:03:22;;;;;;;;;;;21.70;68.70;;;;;;5072515;28;863;-73
2022/06/26 08:05:47;;;;;;;;;;;21.70;68.70;;;;;;5072609;28;1326;-73
2022/06/26 08:08:13;;;;;;;;;;;21.70;68.70;;;;;;5072561;28;1043;-73
2022/06/26 08:10:38;;;;;;;;;;;21.70;68.70;;;;;;5054720;28;857;-73
2022/06/26 08:13:04;;;;;;;;;;;21.70;68.70;;;;;;5054577;28;824;-73
2022/06/26 08:15:29;;;;;;;;;;;21.70;68.70;;;;;;5037509;28;1322;-73
2022/06/26 08:17:55;;;;;;;;;;;21.70;68.70;;;;;;5072493;28;890;-73
2022/06/26 08:20:20;;;;;;;;;;;21.70;68.70;;;;;;5072447;28;1229;-72
2022/06/26 08:22:46;;;;;;;;;;;21.70;68.70;;;;;;5054521;28;1969;-72
2022/06/26 08:25:11;;;;;;;;;;;21.70;68.70;;;;;;5040303;28;1331;-72
2022/06/26 08:27:37;;;;;;;;;;;21.70;68.70;;;;;;5076237;28;1005;-72
2022/06/26 08:30:02;;;;;;;;;;;21.70;68.70;;;;;;5075960;28;1044;-72
2022/06/26 08:32:28;;;;;;;;;;;21.70;68.70;;;;;;5058103;28;855;-72
2022/06/26 08:34:53;;;;;;;;;;;21.70;68.70;;;;;;5075804;28;1214;-72
2022/06/26 08:37:19;;;;;;;;;;;21.70;68.70;;;;;;5057272;28;1928;-72
2022/06/26 08:39:44;;;;;;;;;;;21.70;68.70;;;;;;5041420;28;1492;-72
2022/06/26 08:42:10;;;;;;;;;;;21.70;68.70;;;;;;5057988;28;1898;-72
2022/06/26 08:44:37;;;;;;;;;;;21.70;68.70;;;;;;5075624;28;1274;-72
2022/06/26 08:47:03;;;;;;;;;;;21.70;68.70;;;;;;5058093;28;880;-72
2022/06/26 08:49:29;;;;;;;;;;;21.70;68.70;;;;;;5075747;28;831;-72
2022/06/26 08:51:54;;;;;;;;;;;21.70;68.70;;;;;;5058030;28;871;-72
2022/06/26 08:54:20;;;;;;;;;;;21.70;69.40;;;;;;5075391;28;1189;-72
2022/06/26 08:56:47;;;;;;;;;;;21.70;68.70;;;;;;5075574;28;1503;-73
2022/06/26 08:59:14;;;;;;;;;;;21.70;68.70;;;;;;5075704;28;835;-73
2022/06/26 09:01:39;;;;;;;;;;;21.70;68.70;;;;;;5057784;28;1976;-72
2022/06/26 09:04:05;;;;;;;;;;;21.70;68.70;;;;;;5057407;28;1327;-73
2022/06/26 09:06:34;;;;;;;;;;;21.70;68.70;;;;;;5040934;28;1321;-73
2022/06/26 09:08:59;;;;;;;;;;;21.70;68.70;;;;;;5057863;28;973;-71
2022/06/26 09:11:25;;;;;;;;;;;21.70;68.70;;;;;;5057703;28;876;-72
2022/06/26 09:13:53;;;;;;;;;;;21.70;68.70;;;;;;5057191;28;1204;-72
2022/06/26 09:16:27;;;;;;;;;;;21.70;68.70;;;;;;5075379;28;885;-72
2022/06/26 09:18:52;;;;;;;;;;;21.70;68.70;;;;;;5075461;28;1470;-72
2022/06/26 09:21:25;;;;;;;;;;;21.70;68.70;;;;;;5057346;28;1906;-73
2022/06/26 09:23:52;;;;;;;;;;;21.60;68.60;;;;;;5040592;28;1259;-72
2022/06/26 09:26:17;;;;;;;;;;;21.70;68.70;;;;;;5074889;28;1480;-73
2022/06/26 09:28:42;;;;;;;;;;;21.70;68.70;;;;;;5074764;28;1477;-75
2022/06/26 09:31:08;;;;;;;;;;;21.70;68.70;;;;;;5075097;28;1545;-73
2022/06/26 09:33:34;;;;;;;;;;;21.70;68.70;;;;;;5074932;28;1293;-73
2022/06/26 09:36:00;;;;;;;;;;;21.70;69.40;;;;;;5074207;28;1537;-74
2022/06/26 09:38:26;;;;;;;;;;;21.70;68.70;;;;;;5056703;28;1549;-72
2022/06/26 09:40:56;;;;;;;;;;;21.70;68.70;;;;;;5074609;28;1898;-72
2022/06/26 09:43:29;;;;;;;;;;;21.60;68.60;;;;;;5056687;28;1582;-73
2022/06/26 09:45:54;;;;;;;;;;;21.70;68.70;;;;;;5056492;28;1537;-74
2022/06/26 09:48:21;;;;;;;;;;;21.70;68.70;;;;;;5072752;28;1502;-72
2022/06/26 09:50:46;;;;;;;;;;;21.70;68.70;;;;;;5073446;28;1126;-72
2022/06/26 09:53:12;;;;;;;;;;;21.70;68.70;;;;;;5039682;28;1089;-72
2022/06/26 09:55:37;;;;;;;;;;;21.70;68.70;;;;;;5054698;28;2243;-72
2022/06/26 09:58:03;;;;;;;;;;;21.70;68.70;;;;;;5073236;28;1435;-72
2022/06/26 10:00:30;;;;;;;;;;;21.70;68.70;;;;;;5056283;28;1518;-72
2022/06/26 10:08:24;;;;;;;;;;;21.70;68.70;;;;;;5058893;28;701;-72
2022/06/26 10:10:49;;;;;;;;;;;21.70;68.70;;;;;;5056108;28;847;-73
2022/06/26 10:13:15;;;;;;;;;;;21.70;68.70;;;;;;5055946;28;890;-73
2022/06/26 10:15:42;;;;;;;;;;;21.70;68.70;;;;;;5055674;28;1227;-73
2022/06/26 10:18:10;;;;;;;;;;;21.70;68.70;;;;;;5055788;28;1396;-73
2022/06/26 10:20:35;;;;;;;;;;;21.70;68.70;;;;;;5073556;28;815;-73
2022/06/26 10:23:01;;;;;;;;;;;21.70;68.70;;;;;;5055657;28;1890;-73
2022/06/26 10:25:27;;;;;;;;;;;21.70;68.70;;;;;;5073319;28;1484;-73
2022/06/26 10:27:53;;;;;;;;;;;21.70;68.70;;;;;;5039012;28;1217;-72
2022/06/26 10:30:19;;;;;;;;;;;21.70;68.70;;;;;;5055789;28;1269;-73
2022/06/26 10:32:44;;;;;;;;;;;21.70;68.70;;;;;;5038977;28;1074;-72
2022/06/26 10:35:11;;;;;;;;;;;21.70;68.70;;;;;;5073054;28;1306;-72
2022/06/26 10:37:40;;;;;;;;;;;21.70;68.70;;;;;;5073421;28;812;-73
2022/06/26 10:40:11;;;;;;;;;;;21.70;68.70;;;;;;5073247;28;855;-73
2022/06/26 10:42:54;;;;;;;;;;;21.70;68.70;;;;;;5055446;28;1898;-73
2022/06/26 10:45:20;;;;;;;;;;;21.70;68.70;;;;;;5073053;28;1349;-72
2022/06/26 10:47:56;;;;;;;;;;;21.70;68.90;;;;;;5054401;28;1543;-72
2022/06/26 10:50:31;;;;;;;;;;;21.70;68.70;;;;;;5055383;28;1085;-72
2022/06/26 10:53:10;;;;;;;;;;;21.70;68.70;;;;;;5055341;28;831;-72
2022/06/26 10:55:36;;;;;;;;;;;21.70;68.70;;;;;;5054024;28;2148;-72
2022/06/26 10:58:01;;;;;;;;;;;21.70;69.40;;;;;;5055314;28;1402;-72
2022/06/26 11:00:27;;;;;;;;;;;21.70;68.70;;;;;;5072921;28;1538;-72
2022/06/26 11:02:52;;;;;;;;;;;21.70;68.70;;;;;;5038426;28;1910;-72
2022/06/26 11:05:19;;;;;;;;;;;21.70;68.70;;;;;;5072650;28;1219;-72
2022/06/26 11:07:45;;;;;;;;;;;21.70;68.70;;;;;;5038504;28;1594;-72
2022/06/26 11:10:11;;;;;;;;;;;21.70;68.70;;;;;;5073000;28;1001;-73
2022/06/26 11:12:40;;;;;;;;;;;21.70;68.70;;;;;;5054851;28;812;-72
2022/06/26 11:15:06;;;;;;;;;;;21.70;68.70;;;;;;5054746;28;1292;-72
2022/06/26 11:17:33;;;;;;;;;;;21.70;68.70;;;;;;5072727;28;1033;-72
2022/06/26 11:22:42;;;;;;;;;;;21.70;68.70;;;;;;5069572;28;2267;-69
2022/06/26 11:25:08;;;;;;;;;;;21.70;68.70;;;;;;5069136;28;1282;-71
2022/06/26 11:27:34;;;;;;;;;;;21.70;68.70;;;;;;5072313;28;1079;-71
2022/06/26 11:29:59;;;;;;;;;;;21.70;68.70;;;;;;5072688;28;803;-71
2022/06/26 11:32:25;;;;;;;;;;;21.70;68.70;;;;;;5072580;28;866;-72
2022/06/26 11:34:50;;;;;;;;;;;21.70;68.70;;;;;;5054785;28;1194;-72
2022/06/26 11:37:17;;;;;;;;;;;21.70;68.70;;;;;;5072971;28;974;-71
2022/06/26 11:39:43;;;;;;;;;;;21.70;68.70;;;;;;5055269;28;835;-72
2022/06/26 11:42:18;;;;;;;;;;;21.70;68.70;;;;;;5072527;28;1902;-72
2022/06/26 11:44:50;;;;;;;;;;;21.70;68.70;;;;;;5054263;28;1643;-72
2022/06/26 11:47:15;;;;;;;;;;;21.70;68.70;;;;;;5070992;28;1724;-73
2022/06/26 11:49:41;;;;;;;;;;;21.70;68.70;;;;;;5079613;28;1675;-73
2022/06/26 11:52:07;;;;;;;;;;;21.70;68.70;;;;;;5073619;28;1141;-74
2022/06/26 11:54:32;;;;;;;;;;;21.70;68.70;;;;;;5071485;28;1260;-74
2022/06/26 11:57:03;;;;;;;;;;;21.70;68.70;;;;;;5072219;28;1274;-72
2022/06/26 11:59:28;;;;;;;;;;;21.70;68.70;;;;;;5073894;28;818;-75
2022/06/26 12:01:54;;;;;;;;;;;21.70;68.70;;;;;;5058432;28;1906;-75
2022/06/26 12:04:19;;;;;;;;;;;21.70;68.70;;;;;;5075526;28;1213;-72
2022/06/26 12:06:48;;;;;;;;;;;21.70;68.70;;;;;;5075924;28;1092;-72
2022/06/26 12:09:14;;;;;;;;;;;21.70;68.70;;;;;;5072780;28;1291;-73
2022/06/26 12:11:42;;;;;;;;;;;21.70;68.70;;;;;;5076151;28;814;-75
2022/06/26 12:14:12;;;;;;;;;;;21.70;68.70;;;;;;5073683;28;1288;-72
2022/06/26 12:16:52;;;;;;;;;;;21.70;68.70;;;;;;5057730;28;1316;-72
2022/06/26 12:19:18;;;;;;;;;;;21.70;68.70;;;;;;5073745;28;1234;-72
2022/06/26 12:21:44;;;;;;;;;;;21.70;68.70;;;;;;5057489;28;1891;-72
2022/06/26 12:24:10;;;;;;;;;;;21.70;68.70;;;;;;5056385;28;1986;-72
2022/06/26 12:26:36;;;;;;;;;;;21.70;69.40;;;;;;5073103;28;1716;-72
2022/06/26 12:29:06;;;;;;;;;;;21.70;68.70;;;;;;5057304;28;1251;-72
2022/06/26 12:31:32;;;;;;;;;;;21.70;68.70;;;;;;5038805;28;1818;-72
2022/06/26 12:33:57;;;;;;;;;;;21.70;68.70;;;;;;5073799;28;1952;-70
2022/06/26 12:36:23;;;;;;;;;;;21.70;68.70;;;;;;5075168;28;1267;-75
2022/06/26 12:38:48;;;;;;;;;;;21.70;68.70;;;;;;5056650;28;1150;-75
2022/06/26 12:41:17;;;;;;;;;;;21.70;68.70;;;;;;5057419;28;1913;-72
2022/06/26 12:43:52;;;;;;;;;;;21.70;68.70;;;;;;5055022;28;1306;-72
2022/06/26 12:46:17;;;;;;;;;;;21.70;69.40;;;;;;5074163;28;875;-72
2022/06/26 12:48:43;;;;;;;;;;;21.70;68.70;;;;;;5074081;28;870;-72
2022/06/26 12:51:08;;;;;;;;;;;21.70;68.70;;;;;;5074090;28;811;-70
2022/06/26 12:53:34;;;;;;;;;;;21.70;68.70;;;;;;5074630;28;1355;-74
2022/06/26 12:55:59;;;;;;;;;;;21.70;68.70;;;;;;5075189;28;831;-74
2022/06/26 12:58:25;;;;;;;;;;;21.70;68.70;;;;;;5075040;28;1242;-73
2022/06/26 13:00:50;;;;;;;;;;;21.70;68.70;;;;;;5057402;28;1906;-74
2022/06/26 13:03:16;;;;;;;;;;;21.70;68.70;;;;;;5074852;28;878;-74
2022/06/26 13:05:41;;;;;;;;;;;21.70;68.70;;;;;;5075003;28;1262;-75
2022/06/26 13:08:07;;;;;;;;;;;21.70;68.70;;;;;;5075034;28;898;-74
2022/06/26 13:10:32;;;;;;;;;;;21.70;68.70;;;;;;5074102;28;862;-75
2022/06/26 13:12:58;;;;;;;;;;;21.70;68.70;;;;;;5075098;28;829;-74
2022/06/26 13:15:23;;;;;;;;;;;21.70;68.70;;;;;;5056583;28;1206;-73
2022/06/26 13:17:48;;;;;;;;;;;21.70;68.70;;;;;;5075027;28;882;-74
2022/06/26 13:20:14;;;;;;;;;;;21.70;68.70;;;;;;5074631;28;1174;-74
2022/06/26 13:22:39;;;;;;;;;;;21.70;68.70;;;;;;5074928;28;1899;-73
2022/06/26 13:25:05;;;;;;;;;;;21.70;69.00;;;;;;5074336;28;1190;-74
2022/06/26 13:27:31;;;;;;;;;;;21.70;68.70;;;;;;5056763;28;1109;-74
2022/06/26 13:29:56;;;;;;;;;;;21.70;68.70;;;;;;5074008;28;787;-72
2022/06/26 13:32:23;;;;;;;;;;;21.70;68.70;;;;;;5056203;28;1029;-72
2022/06/26 13:34:49;;;;;;;;;;;21.70;68.70;;;;;;5072861;28;1232;-72
2022/06/26 13:37:16;;;;;;;;;;;21.70;68.70;;;;;;5074638;28;827;-72
2022/06/26 13:39:41;;;;;;;;;;;21.70;68.70;;;;;;5074416;28;862;-72
2022/06/26 13:42:07;;;;;;;;;;;21.70;68.70;;;;;;5074356;28;1953;-71
2022/06/26 13:44:32;;;;;;;;;;;21.70;68.70;;;;;;5067337;28;1581;-72
2022/06/26 13:46:58;;;;;;;;;;;21.70;68.70;;;;;;5076398;28;994;-72
2022/06/26 13:49:23;;;;;;;;;;;21.70;68.70;;;;;;5093303;28;795;-72
2022/06/26 13:51:49;;;;;;;;;;;21.70;68.70;;;;;;5075358;28;946;-72
2022/06/26 13:54:14;;;;;;;;;;;21.70;68.70;;;;;;5075587;28;1196;-72
2022/06/26 13:56:40;;;;;;;;;;;21.70;68.70;;;;;;5081416;28;2210;-72
2022/06/26 13:59:05;;;;;;;;;;;21.70;68.70;;;;;;5072733;28;1029;-71
2022/06/26 14:01:31;;;;;;;;;;;21.70;68.70;;;;;;5055644;28;2019;-72
2022/06/26 14:03:56;;;;;;;;;;;21.70;68.70;;;;;;5073506;28;1329;-72
2022/06/26 14:06:21;;;;;;;;;;;21.70;68.70;;;;;;5072609;28;1290;-71
2022/06/26 14:08:47;;;;;;;;;;;21.70;68.70;;;;;;5055823;28;1189;-72
2022/06/26 14:11:12;;;;;;;;;;;21.70;68.70;;;;;;5073912;28;855;-72
2022/06/26 14:13:38;;;;;;;;;;;21.70;68.70;;;;;;5055781;28;1263;-72
2022/06/26 14:16:04;;;;;;;;;;;21.70;68.70;;;;;;5073201;28;1184;-71
2022/06/26 14:18:29;;;;;;;;;;;21.70;68.70;;;;;;5073523;28;1330;-72
2022/06/26 14:20:54;;;;;;;;;;;21.70;68.70;;;;;;5073515;28;1969;-72
2022/06/26 14:26:04;;;;;;;;;;;21.70;68.70;;;;;;5073304;28;1201;-71
2022/06/26 14:28:30;;;;;;;;;;;21.70;68.70;;;;;;5073237;28;795;-72
2022/06/26 14:30:56;;;;;;;;;;;21.70;68.70;;;;;;5073678;28;990;-72
2022/06/26 14:33:21;;;;;;;;;;;21.70;68.70;;;;;;5073441;28;1076;-72
2022/06/26 14:35:47;;;;;;;;;;;21.70;68.70;;;;;;5073042;28;1232;-72
2022/06/26 14:38:12;;;;;;;;;;;21.70;68.70;;;;;;5073379;28;859;-71
2022/06/26 14:40:38;;;;;;;;;;;21.70;68.70;;;;;;5073666;28;786;-72
2022/06/26 14:43:04;;;;;;;;;;;21.70;68.70;;;;;;5072871;28;1961;-72